Ana Sayfa
METAR-TAF:

METAR-TAF

Havaalanları :

Wallops Flight Facility

Wallops Island, Virginia, Amerika Birleşik Devletleri

Enlem: 37-56-26N, Boylam: 075-27-47W, yükseklik: 12 m

Güncel hava durumu gözlemi

Rapor saat 15:54 UTC de 44 dakika önce yapıldı.
Rüzgar batıdan 9 kt ve 16 kt'a kadar ani rüzgarlar
Sıcaklık 31°C
Nem 63%
Basınç 1016 hPa
Görüş mesafesi: 16.1 km
3000 ft yükseklikte parçalı bulutlu
15000 ft yükseklikte parçalı çok bulutlu
25000 ft yükseklikte parçalı çok bulutlu

METAR: KWAL 211554Z 26009G16KT 10SM SCT030 BKN150 BKN250 31/23 A3001 RMK AO2 SLP160 T03060233

Saat: 12:38 (16:38 UTC)


TAF: eksik

4.000'den fazla havaalanı için hava durumu gözlemleri ve tahminleri (METAR ve TAF raporları).

Kullanılabilir istasyonlar harita üzerinde sarı ve kırmızı noktalarla gösterilir.

İstasyonun adını görmek için fareyi noktanın üzerinde gezdirin.

Sonrasında hava gözlem ve tahminlerini görmek için tıklayın.

Haritayı değiştirmek için: yaklaştırmak için siyah artı işaretli yeşil düğmeye ve uzaklaştırmak için de eksi işaretli düğmeye hızla tıklayın; bitişik haritalar için yeşil okları kullanın.


METAR-TAF: